sensor_id;sensor_type;location;lat;lon;timestamp;pressure;altitude;pressure_sealevel;temperature;humidity
69842;BME280;57138;51.326;-0.068;2023-03-03T00:01:07;100777.56;;;2.69;77.24
69842;BME280;57138;51.326;-0.068;2023-03-03T00:03:32;100829.94;;;3.08;76.82
69842;BME280;57138;51.326;-0.068;2023-03-03T00:05:58;100836.91;;;3.09;76.75
69842;BME280;57138;51.326;-0.068;2023-03-03T00:08:24;100823.56;;;3.10;76.92
69842;BME280;57138;51.326;-0.068;2023-03-03T00:10:50;100855.78;;;3.04;76.90
69842;BME280;57138;51.326;-0.068;2023-03-03T00:13:25;100844.22;;;3.05;77.04
69842;BME280;57138;51.326;-0.068;2023-03-03T00:15:52;100833.53;;;3.06;77.32
69842;BME280;57138;51.326;-0.068;2023-03-03T00:18:27;100834.41;;;3.07;76.77
69842;BME280;57138;51.326;-0.068;2023-03-03T00:20:56;100834.53;;;3.05;76.69
69842;BME280;57138;51.326;-0.068;2023-03-03T00:23:30;100818.31;;;2.99;76.64
69842;BME280;57138;51.326;-0.068;2023-03-03T00:25:59;100846.38;;;3.11;76.69
69842;BME280;57138;51.326;-0.068;2023-03-03T00:28:30;100806.94;;;2.87;76.85
69842;BME280;57138;51.326;-0.068;2023-03-03T00:31:00;100846.38;;;3.11;77.00
69842;BME280;57138;51.326;-0.068;2023-03-03T00:33:42;100846.63;;;3.08;76.83
69842;BME280;57138;51.326;-0.068;2023-03-03T00:36:26;100852.50;;;3.12;76.59
69842;BME280;57138;51.326;-0.068;2023-03-03T00:38:59;100851.66;;;3.11;76.20
69842;BME280;57138;51.326;-0.068;2023-03-03T00:41:35;100855.88;;;3.14;76.48
69842;BME280;57138;51.326;-0.068;2023-03-03T00:46:49;100862.84;;;3.15;76.40
69842;BME280;57138;51.326;-0.068;2023-03-03T00:49:23;100850.94;;;3.09;76.39
69842;BME280;57138;51.326;-0.068;2023-03-03T00:51:49;100861.72;;;3.17;76.07
69842;BME280;57138;51.326;-0.068;2023-03-03T00:54:14;100849.75;;;3.13;76.19
69842;BME280;57138;51.326;-0.068;2023-03-03T00:56:39;100834.63;;;3.04;76.13
69842;BME280;57138;51.326;-0.068;2023-03-03T00:59:05;100844.72;;;3.10;75.85
69842;BME280;57138;51.326;-0.068;2023-03-03T01:01:31;100850.34;;;3.17;76.08
69842;BME280;57138;51.326;-0.068;2023-03-03T01:03:57;100847.72;;;3.05;76.09
69842;BME280;57138;51.326;-0.068;2023-03-03T01:06:23;100867.00;;;3.17;76.16
69842;BME280;57138;51.326;-0.068;2023-03-03T01:08:48;100858.38;;;3.15;76.48
69842;BME280;57138;51.326;-0.068;2023-03-03T01:11:21;100863.16;;;3.21;75.72
69842;BME280;57138;51.326;-0.068;2023-03-03T01:13:48;100867.34;;;3.24;76.39
69842;BME280;57138;51.326;-0.068;2023-03-03T01:16:15;100839.44;;;3.10;76.07
69842;BME280;57138;51.326;-0.068;2023-03-03T01:18:41;100847.22;;;3.12;76.07
69842;BME280;57138;51.326;-0.068;2023-03-03T01:21:07;100836.06;;;3.08;75.98
69842;BME280;57138;51.326;-0.068;2023-03-03T01:23:33;100853.69;;;3.19;75.89
69842;BME280;57138;51.326;-0.068;2023-03-03T01:25:59;100845.88;;;3.17;76.03
69842;BME280;57138;51.326;-0.068;2023-03-03T01:28:24;100859.78;;;3.19;75.93
69842;BME280;57138;51.326;-0.068;2023-03-03T01:30:49;100858.13;;;3.18;76.34
69842;BME280;57138;51.326;-0.068;2023-03-03T01:33:15;100857.88;;;3.21;76.53
69842;BME280;57138;51.326;-0.068;2023-03-03T01:35:45;100852.72;;;3.20;76.11
69842;BME280;57138;51.326;-0.068;2023-03-03T01:38:11;100848.03;;;3.23;76.21
69842;BME280;57138;51.326;-0.068;2023-03-03T01:40:37;100867.22;;;3.26;76.39
69842;BME280;57138;51.326;-0.068;2023-03-03T01:43:02;100845.38;;;3.23;76.09
69842;BME280;57138;51.326;-0.068;2023-03-03T01:45:31;100865.19;;;3.29;76.39
69842;BME280;57138;51.326;-0.068;2023-03-03T01:48:08;100851.97;;;3.29;75.98
69842;BME280;57138;51.326;-0.068;2023-03-03T01:53:11;100868.66;;;3.30;76.36
69842;BME280;57138;51.326;-0.068;2023-03-03T01:55:39;100855.44;;;3.30;76.41
69842;BME280;57138;51.326;-0.068;2023-03-03T01:58:20;100830.75;;;3.08;76.22
69842;BME280;57138;51.326;-0.068;2023-03-03T02:00:50;100868.66;;;3.30;76.38
69842;BME280;57138;51.326;-0.068;2023-03-03T02:03:19;100841.09;;;3.11;76.45
69842;BME280;57138;51.326;-0.068;2023-03-03T02:05:45;100835.81;;;3.11;76.29
69842;BME280;57138;51.326;-0.068;2023-03-03T02:08:14;100875.88;;;3.28;76.48
69842;BME280;57138;51.326;-0.068;2023-03-03T02:10:44;100872.38;;;3.27;76.78
69842;BME280;57138;51.326;-0.068;2023-03-03T02:13:10;100857.88;;;3.21;76.47
69842;BME280;57138;51.326;-0.068;2023-03-03T02:15:35;100868.91;;;3.27;76.57
69842;BME280;57138;51.326;-0.068;2023-03-03T02:18:07;100865.81;;;3.21;76.36
69842;BME280;57138;51.326;-0.068;2023-03-03T02:20:39;100864.81;;;3.22;76.46
69842;BME280;57138;51.326;-0.068;2023-03-03T02:25:58;100877.78;;;3.26;76.37
69842;BME280;57138;51.326;-0.068;2023-03-03T02:28:29;100871.81;;;3.23;76.68
69842;BME280;57138;51.326;-0.068;2023-03-03T02:30:57;100867.84;;;3.18;76.68
69842;BME280;57138;51.326;-0.068;2023-03-03T02:33:24;100852.13;;;3.16;76.64
69842;BME280;57138;51.326;-0.068;2023-03-03T02:35:50;100873.50;;;3.24;76.34
69842;BME280;57138;51.326;-0.068;2023-03-03T02:38:37;100851.41;;;3.14;76.57
69842;BME280;57138;51.326;-0.068;2023-03-03T02:41:12;100854.19;;;3.13;76.22
69842;BME280;57138;51.326;-0.068;2023-03-03T02:43:50;100870.34;;;3.19;76.59
69842;BME280;57138;51.326;-0.068;2023-03-03T02:46:17;100868.69;;;3.18;76.22
69842;BME280;57138;51.326;-0.068;2023-03-03T02:48:43;100860.03;;;3.16;76.11
69842;BME280;57138;51.326;-0.068;2023-03-03T02:51:09;100838.94;;;3.05;76.41
69842;BME280;57138;51.326;-0.068;2023-03-03T02:53:34;100865.06;;;3.19;76.67
69842;BME280;57138;51.326;-0.068;2023-03-03T02:55:59;100851.91;;;3.08;76.02
69842;BME280;57138;51.326;-0.068;2023-03-03T02:58:25;100860.31;;;3.13;76.62
69842;BME280;57138;51.326;-0.068;2023-03-03T03:00:50;100857.81;;;3.12;76.29
69842;BME280;57138;51.326;-0.068;2023-03-03T03:03:16;100879.28;;;3.18;76.76
69842;BME280;57138;51.326;-0.068;2023-03-03T03:05:41;100865.00;;;3.10;76.57
69842;BME280;57138;51.326;-0.068;2023-03-03T03:08:07;100866.44;;;3.14;76.39
69842;BME280;57138;51.326;-0.068;2023-03-03T03:10:32;100873.88;;;3.20;76.72
69842;BME280;57138;51.326;-0.068;2023-03-03T03:12:58;100859.84;;;3.08;76.49
69842;BME280;57138;51.326;-0.068;2023-03-03T03:15:23;100875.06;;;3.16;76.53
69842;BME280;57138;51.326;-0.068;2023-03-03T03:17:48;100875.06;;;3.16;75.97
69842;BME280;57138;51.326;-0.068;2023-03-03T03:20:14;100875.19;;;3.14;76.55
69842;BME280;57138;51.326;-0.068;2023-03-03T03:22:40;100879.28;;;3.18;76.58
69842;BME280;57138;51.326;-0.068;2023-03-03T03:25:05;100875.31;;;3.13;76.03
69842;BME280;57138;51.326;-0.068;2023-03-03T03:27:31;100855.66;;;3.05;76.45
69842;BME280;57138;51.326;-0.068;2023-03-03T03:29:56;100851.00;;;2.98;76.16
69842;BME280;57138;51.326;-0.068;2023-03-03T03:32:22;100879.53;;;3.15;76.09
69842;BME280;57138;51.326;-0.068;2023-03-03T03:34:47;100882.16;;;3.15;76.35
69842;BME280;57138;51.326;-0.068;2023-03-03T03:37:13;100881.47;;;3.13;76.14
69842;BME280;57138;51.326;-0.068;2023-03-03T03:39:38;100877.88;;;3.03;76.50
69842;BME280;57138;51.326;-0.068;2023-03-03T03:42:03;100885.41;;;3.08;76.62
69842;BME280;57138;51.326;-0.068;2023-03-03T03:44:29;100888.31;;;3.04;76.19
69842;BME280;57138;51.326;-0.068;2023-03-03T03:46:54;100880.75;;;3.00;76.31
69842;BME280;57138;51.326;-0.068;2023-03-03T03:49:20;100880.75;;;3.00;76.13
69842;BME280;57138;51.326;-0.068;2023-03-03T03:51:45;100899.72;;;3.05;76.69
69842;BME280;57138;51.326;-0.068;2023-03-03T03:54:11;100893.25;;;2.98;76.26
69842;BME280;57138;51.326;-0.068;2023-03-03T03:56:36;100906.69;;;3.06;76.72
69842;BME280;57138;51.326;-0.068;2023-03-03T03:59:02;100887.47;;;2.93;76.29
69842;BME280;57138;51.326;-0.068;2023-03-03T04:01:27;100906.81;;;3.04;76.76
69842;BME280;57138;51.326;-0.068;2023-03-03T04:03:53;100915.56;;;3.05;76.41
69842;BME280;57138;51.326;-0.068;2023-03-03T04:06:23;100900.31;;;2.97;76.52
69842;BME280;57138;51.326;-0.068;2023-03-03T04:08:50;100906.09;;;3.02;76.72
69842;BME280;57138;51.326;-0.068;2023-03-03T04:11:16;100885.56;;;2.95;76.33
69842;BME280;57138;51.326;-0.068;2023-03-03T04:13:42;100906.69;;;3.06;76.61
69842;BME280;57138;51.326;-0.068;2023-03-03T04:16:07;100899.72;;;3.05;76.52
69842;BME280;57138;51.326;-0.068;2023-03-03T04:18:32;100906.94;;;3.03;76.45
69842;BME280;57138;51.326;-0.068;2023-03-03T04:20:58;100908.50;;;3.05;76.68
69842;BME280;57138;51.326;-0.068;2023-03-03T04:23:23;100907.63;;;3.05;76.51
69842;BME280;57138;51.326;-0.068;2023-03-03T04:25:49;100901.06;;;2.99;76.63
69842;BME280;57138;51.326;-0.068;2023-03-03T04:28:15;100908.50;;;3.05;76.82
69842;BME280;57138;51.326;-0.068;2023-03-03T04:30:41;100883.41;;;2.88;76.24
69842;BME280;57138;51.326;-0.068;2023-03-03T04:33:06;100886.53;;;2.94;76.59
69842;BME280;57138;51.326;-0.068;2023-03-03T04:35:32;100885.94;;;2.90;76.35
69842;BME280;57138;51.326;-0.068;2023-03-03T04:37:57;100896.97;;;2.95;76.56
69842;BME280;57138;51.326;-0.068;2023-03-03T04:40:23;100905.84;;;3.05;76.18
69842;BME280;57138;51.326;-0.068;2023-03-03T04:42:48;100901.41;;;3.06;76.35
69842;BME280;57138;51.326;-0.068;2023-03-03T04:45:13;100911.97;;;3.06;76.30
69842;BME280;57138;51.326;-0.068;2023-03-03T04:47:39;100893.84;;;3.01;76.42
69842;BME280;57138;51.326;-0.068;2023-03-03T04:50:05;100896.47;;;3.01;76.48
69842;BME280;57138;51.326;-0.068;2023-03-03T04:52:30;100895.53;;;3.02;76.37
69842;BME280;57138;51.326;-0.068;2023-03-03T04:54:56;100891.56;;;2.97;76.51
69842;BME280;57138;51.326;-0.068;2023-03-03T04:57:21;100894.56;;;2.92;76.05
69842;BME280;57138;51.326;-0.068;2023-03-03T04:59:46;100881.03;;;2.85;76.16
69842;BME280;57138;51.326;-0.068;2023-03-03T05:02:12;100900.19;;;2.99;76.90
69842;BME280;57138;51.326;-0.068;2023-03-03T05:04:38;100914.38;;;2.98;76.64
69842;BME280;57138;51.326;-0.068;2023-03-03T05:07:04;100896.25;;;2.93;76.36
69842;BME280;57138;51.326;-0.068;2023-03-03T05:09:29;100899.28;;;2.88;76.39
69842;BME280;57138;51.326;-0.068;2023-03-03T05:11:55;100910.31;;;2.94;76.95
69842;BME280;57138;51.326;-0.068;2023-03-03T05:14:20;100897.56;;;2.87;76.36
69842;BME280;57138;51.326;-0.068;2023-03-03T05:16:46;100900.47;;;2.84;76.58
69842;BME280;57138;51.326;-0.068;2023-03-03T05:19:11;100901.16;;;2.86;76.23
69842;BME280;57138;51.326;-0.068;2023-03-03T05:21:37;100912.09;;;2.93;76.17
69842;BME280;57138;51.326;-0.068;2023-03-03T05:24:09;100903.09;;;2.84;76.73
69842;BME280;57138;51.326;-0.068;2023-03-03T05:26:36;100895.66;;;2.78;76.37
69842;BME280;57138;51.326;-0.068;2023-03-03T05:29:02;100888.56;;;2.79;76.29
69842;BME280;57138;51.326;-0.068;2023-03-03T05:31:27;100906.81;;;2.93;76.61
69842;BME280;57138;51.326;-0.068;2023-03-03T05:33:53;100906.22;;;2.90;75.94
69842;BME280;57138;51.326;-0.068;2023-03-03T05:36:19;100914.00;;;2.91;76.76
69842;BME280;57138;51.326;-0.068;2023-03-03T05:38:44;100908.16;;;2.87;76.41
69842;BME280;57138;51.326;-0.068;2023-03-03T05:41:09;100903.34;;;2.81;76.29
69842;BME280;57138;51.326;-0.068;2023-03-03T05:43:35;100899.13;;;2.79;76.61
69842;BME280;57138;51.326;-0.068;2023-03-03T05:46:00;100888.47;;;2.69;76.45
69842;BME280;57138;51.326;-0.068;2023-03-03T05:48:26;100906.44;;;2.86;76.64
69842;BME280;57138;51.326;-0.068;2023-03-03T05:50:52;100884.41;;;2.76;76.51
69842;BME280;57138;51.326;-0.068;2023-03-03T05:53:17;100910.91;;;2.86;76.47
69842;BME280;57138;51.326;-0.068;2023-03-03T05:55:43;100910.06;;;2.85;76.10
69842;BME280;57138;51.326;-0.068;2023-03-03T05:58:08;100905.03;;;2.82;76.54
69842;BME280;57138;51.326;-0.068;2023-03-03T06:00:34;100896.50;;;2.79;76.44
69842;BME280;57138;51.326;-0.068;2023-03-03T06:03:00;100906.00;;;2.81;76.29
69842;BME280;57138;51.326;-0.068;2023-03-03T06:05:25;100901.66;;;2.80;76.65
69842;BME280;57138;51.326;-0.068;2023-03-03T06:07:50;100903.34;;;2.81;76.60
69842;BME280;57138;51.326;-0.068;2023-03-03T06:10:16;100905.75;;;2.84;76.63
69842;BME280;57138;51.326;-0.068;2023-03-03T06:12:41;100895.66;;;2.78;76.25
69842;BME280;57138;51.326;-0.068;2023-03-03T06:15:08;100910.19;;;2.84;76.56
69842;BME280;57138;51.326;-0.068;2023-03-03T06:17:34;100904.41;;;2.79;76.49
69842;BME280;57138;51.326;-0.068;2023-03-03T06:19:59;100887.53;;;2.70;76.10
69842;BME280;57138;51.326;-0.068;2023-03-03T06:22:25;100914.75;;;2.82;76.41
69842;BME280;57138;51.326;-0.068;2023-03-03T06:24:50;100901.78;;;2.79;76.35
69842;BME280;57138;51.326;-0.068;2023-03-03T06:27:17;100888.34;;;2.70;76.27
69842;BME280;57138;51.326;-0.068;2023-03-03T06:29:42;100909.34;;;2.83;76.37
69842;BME280;57138;51.326;-0.068;2023-03-03T06:32:08;100899.38;;;2.76;76.34
69842;BME280;57138;51.326;-0.068;2023-03-03T06:34:33;100908.88;;;2.78;76.35
69842;BME280;57138;51.326;-0.068;2023-03-03T06:36:59;100920.13;;;2.80;76.21
69842;BME280;57138;51.326;-0.068;2023-03-03T06:39:24;100917.63;;;2.79;76.38
69842;BME280;57138;51.326;-0.068;2023-03-03T06:41:49;100904.06;;;2.72;76.71
69842;BME280;57138;51.326;-0.068;2023-03-03T06:44:15;100914.97;;;2.79;76.11
69842;BME280;57138;51.326;-0.068;2023-03-03T06:46:41;100898.44;;;2.65;76.44
69842;BME280;57138;51.326;-0.068;2023-03-03T06:49:06;100916.19;;;2.75;75.97
69842;BME280;57138;51.326;-0.068;2023-03-03T06:51:36;100892.06;;;2.57;76.06
69842;BME280;57138;51.326;-0.068;2023-03-03T06:54:15;100918.84;;;2.75;76.11
69842;BME280;57138;51.326;-0.068;2023-03-03T06:56:42;100919.69;;;2.75;76.66
69842;BME280;57138;51.326;-0.068;2023-03-03T06:59:14;100924.97;;;2.75;76.93
69842;BME280;57138;51.326;-0.068;2023-03-03T07:01:40;100933.34;;;2.80;76.51
69842;BME280;57138;51.326;-0.068;2023-03-03T07:04:26;100935.03;;;2.81;76.00
69842;BME280;57138;51.326;-0.068;2023-03-03T07:06:54;100925.91;;;2.74;76.23
69842;BME280;57138;51.326;-0.068;2023-03-03T07:09:26;100938.38;;;2.83;76.36
69842;BME280;57138;51.326;-0.068;2023-03-03T07:11:56;100930.94;;;2.77;76.43
69842;BME280;57138;51.326;-0.068;2023-03-03T07:14:24;100933.72;;;2.87;76.03
69842;BME280;57138;51.326;-0.068;2023-03-03T07:16:55;100944.16;;;2.88;76.59
69842;BME280;57138;51.326;-0.068;2023-03-03T07:19:48;100938.75;;;2.90;76.04
69842;BME280;57138;51.326;-0.068;2023-03-03T07:22:19;100944.88;;;2.91;76.37
69842;BME280;57138;51.326;-0.068;2023-03-03T07:24:50;100943.81;;;2.93;76.48
69842;BME280;57138;51.326;-0.068;2023-03-03T07:27:30;100935.16;;;2.91;76.38
69842;BME280;57138;51.326;-0.068;2023-03-03T07:32:44;100947.16;;;2.95;76.32
69842;BME280;57138;51.326;-0.068;2023-03-03T07:37:51;100946.09;;;2.98;76.38
69842;BME280;57138;51.326;-0.068;2023-03-03T07:40:36;100964.09;;;3.04;76.26
69842;BME280;57138;51.326;-0.068;2023-03-03T07:46:13;100961.22;;;3.07;76.12
69842;BME280;57138;51.326;-0.068;2023-03-03T07:48:41;100969.03;;;3.09;76.44
69842;BME280;57138;51.326;-0.068;2023-03-03T07:53:46;100951.97;;;3.01;76.17
69842;BME280;57138;51.326;-0.068;2023-03-03T07:58:44;100971.31;;;3.13;75.54
69842;BME280;57138;51.326;-0.068;2023-03-03T08:03:55;100976.81;;;3.10;75.96
69842;BME280;57138;51.326;-0.068;2023-03-03T08:06:57;100983.28;;;3.17;75.71
69842;BME280;57138;51.326;-0.068;2023-03-03T08:09:30;100993.03;;;3.17;75.29
69842;BME280;57138;51.326;-0.068;2023-03-03T08:14:35;100999.97;;;3.18;75.07
69842;BME280;57138;51.326;-0.068;2023-03-03T08:17:16;100987.88;;;3.15;75.92
69842;BME280;57138;51.326;-0.068;2023-03-03T08:19:43;100959.06;;;3.01;75.55
69842;BME280;57138;51.326;-0.068;2023-03-03T08:22:14;100995.53;;;3.18;75.51
69842;BME280;57138;51.326;-0.068;2023-03-03T08:24:40;100990.84;;;3.22;75.44
69842;BME280;57138;51.326;-0.068;2023-03-03T08:27:05;100980.88;;;3.14;74.78
69842;BME280;57138;51.326;-0.068;2023-03-03T08:29:31;100989.16;;;3.21;75.08
69842;BME280;57138;51.326;-0.068;2023-03-03T08:31:56;101009.34;;;3.33;74.59
69842;BME280;57138;51.326;-0.068;2023-03-03T08:34:22;101011.84;;;3.35;74.81
69842;BME280;57138;51.326;-0.068;2023-03-03T08:36:48;101015.25;;;3.37;74.77
69842;BME280;57138;51.326;-0.068;2023-03-03T08:39:14;101013.31;;;3.39;74.35
69842;BME280;57138;51.326;-0.068;2023-03-03T08:41:39;101001.91;;;3.38;74.03
69842;BME280;57138;51.326;-0.068;2023-03-03T08:44:08;100985.19;;;3.38;74.08
69842;BME280;57138;51.326;-0.068;2023-03-03T08:46:33;101009.91;;;3.48;73.83
69842;BME280;57138;51.326;-0.068;2023-03-03T08:48:59;101011.25;;;3.54;73.33
69842;BME280;57138;51.326;-0.068;2023-03-03T08:51:44;100994.53;;;3.53;72.42
69842;BME280;57138;51.326;-0.068;2023-03-03T08:54:10;100992.38;;;3.58;73.35
69842;BME280;57138;51.326;-0.068;2023-03-03T08:56:35;100976.50;;;3.58;73.36
69842;BME280;57138;51.326;-0.068;2023-03-03T08:59:01;100998.06;;;3.75;72.27
69842;BME280;57138;51.326;-0.068;2023-03-03T09:01:26;100940.22;;;3.49;72.87
69842;BME280;57138;51.326;-0.068;2023-03-03T09:03:52;100978.09;;;3.82;72.59
69842;BME280;57138;51.326;-0.068;2023-03-03T09:06:17;101000.19;;;3.92;72.62
69842;BME280;57138;51.326;-0.068;2023-03-03T09:08:42;100989.09;;;3.99;72.18
69842;BME280;57138;51.326;-0.068;2023-03-03T09:11:13;100981.28;;;3.97;72.02
69842;BME280;57138;51.326;-0.068;2023-03-03T09:13:39;100994.34;;;4.10;72.14
69842;BME280;57138;51.326;-0.068;2023-03-03T09:16:13;100994.34;;;4.10;71.65
69842;BME280;57138;51.326;-0.068;2023-03-03T09:18:39;100997.50;;;4.25;71.85
69842;BME280;57138;51.326;-0.068;2023-03-03T09:21:25;101004.69;;;4.34;70.92
69842;BME280;57138;51.326;-0.068;2023-03-03T09:23:58;100996.34;;;4.39;70.70
69842;BME280;57138;51.326;-0.068;2023-03-03T09:26:43;100990.81;;;4.42;70.78
69842;BME280;57138;51.326;-0.068;2023-03-03T09:37:22;101010.69;;;4.57;70.09
69842;BME280;57138;51.326;-0.068;2023-03-03T09:39:53;101001.19;;;4.55;70.17
69842;BME280;57138;51.326;-0.068;2023-03-03T09:45:02;101008.75;;;4.59;69.67
69842;BME280;57138;51.326;-0.068;2023-03-03T09:50:36;101017.16;;;4.64;70.10
69842;BME280;57138;51.326;-0.068;2023-03-03T09:55:50;101006.88;;;4.71;70.64
69842;BME280;57138;51.326;-0.068;2023-03-03T10:01:44;101008.78;;;4.90;69.73
69842;BME280;57138;51.326;-0.068;2023-03-03T10:21:07;101028.03;;;5.23;70.35
69842;BME280;57138;51.326;-0.068;2023-03-03T10:29:10;101034.63;;;5.29;69.85
69842;BME280;57138;51.326;-0.068;2023-03-03T10:32:01;101022.03;;;5.21;69.42
69842;BME280;57138;51.326;-0.068;2023-03-03T10:37:25;101044.22;;;5.20;69.94
69842;BME280;57138;51.326;-0.068;2023-03-03T10:40:01;101042.81;;;5.16;70.08
69842;BME280;57138;51.326;-0.068;2023-03-03T10:42:46;101038.31;;;5.07;70.33
69842;BME280;57138;51.326;-0.068;2023-03-03T10:57:02;101057.31;;;4.91;70.69
69842;BME280;57138;51.326;-0.068;2023-03-03T11:02:21;101043.22;;;4.90;71.09
69842;BME280;57138;51.326;-0.068;2023-03-03T11:07:29;101059.19;;;5.00;70.74
69842;BME280;57138;51.326;-0.068;2023-03-03T11:15:59;101055.06;;;5.17;70.73
69842;BME280;57138;51.326;-0.068;2023-03-03T11:23:57;101056.25;;;5.34;70.85
69842;BME280;57138;51.326;-0.068;2023-03-03T11:32:04;101058.25;;;5.42;69.45
69842;BME280;57138;51.326;-0.068;2023-03-03T11:34:45;101066.91;;;5.44;70.03
69842;BME280;57138;51.326;-0.068;2023-03-03T11:39:39;101060.22;;;5.39;68.79
69842;BME280;57138;51.326;-0.068;2023-03-03T11:42:14;101051.13;;;5.42;69.20
69842;BME280;57138;51.326;-0.068;2023-03-03T11:44:52;101057.97;;;5.45;68.66
69842;BME280;57138;51.326;-0.068;2023-03-03T11:47:32;101055.19;;;5.46;67.97
69842;BME280;57138;51.326;-0.068;2023-03-03T11:55:44;101045.59;;;5.55;68.15
69842;BME280;57138;51.326;-0.068;2023-03-03T11:58:18;101049.91;;;5.56;67.80
69842;BME280;57138;51.326;-0.068;2023-03-03T12:00:53;101042.94;;;5.55;67.49
69842;BME280;57138;51.326;-0.068;2023-03-03T12:03:45;101048.53;;;5.52;66.67
69842;BME280;57138;51.326;-0.068;2023-03-03T12:09:15;101044.03;;;5.43;67.95
69842;BME280;57138;51.326;-0.068;2023-03-03T12:12:05;101037.88;;;5.42;67.26
69842;BME280;57138;51.326;-0.068;2023-03-03T12:20:21;101042.63;;;5.48;67.17
69842;BME280;57138;51.326;-0.068;2023-03-03T12:23:05;101026.44;;;5.42;65.79
69842;BME280;57138;51.326;-0.068;2023-03-03T12:25:41;101043.75;;;5.46;66.48
69842;BME280;57138;51.326;-0.068;2023-03-03T12:28:16;101044.03;;;5.43;65.05
69842;BME280;57138;51.326;-0.068;2023-03-03T12:33:16;101040.38;;;5.44;65.42
69842;BME280;57138;51.326;-0.068;2023-03-03T12:39:23;101027.78;;;5.36;64.54
69842;BME280;57138;51.326;-0.068;2023-03-03T12:44:39;101027.66;;;5.37;65.36
69842;BME280;57138;51.326;-0.068;2023-03-03T12:47:27;101025.00;;;5.37;65.38
69842;BME280;57138;51.326;-0.068;2023-03-03T13:01:16;101023.63;;;5.43;65.30
69842;BME280;57138;51.326;-0.068;2023-03-03T13:06:30;100998.06;;;5.32;64.98
69842;BME280;57138;51.326;-0.068;2023-03-03T13:17:03;101018.97;;;5.76;64.66
69842;BME280;57138;51.326;-0.068;2023-03-03T13:19:36;101000.78;;;5.71;63.98
69842;BME280;57138;51.326;-0.068;2023-03-03T13:24:57;101021.94;;;6.02;63.76
69842;BME280;57138;51.326;-0.068;2023-03-03T13:27:40;101009.47;;;5.93;61.32
69842;BME280;57138;51.326;-0.068;2023-03-03T13:30:14;101024.06;;;5.99;62.09
69842;BME280;57138;51.326;-0.068;2023-03-03T13:32:48;101020.69;;;5.97;61.54
69842;BME280;57138;51.326;-0.068;2023-03-03T13:35:42;101025.13;;;5.96;61.76
69842;BME280;57138;51.326;-0.068;2023-03-03T13:38:17;101014.50;;;5.96;62.75
69842;BME280;57138;51.326;-0.068;2023-03-03T13:43:16;101009.47;;;5.93;62.06
69842;BME280;57138;51.326;-0.068;2023-03-03T13:45:50;101008.94;;;5.89;61.79
69842;BME280;57138;51.326;-0.068;2023-03-03T13:59:23;101009.47;;;5.73;63.30
69842;BME280;57138;51.326;-0.068;2023-03-03T14:04:45;101012.28;;;5.72;63.33
69842;BME280;57138;51.326;-0.068;2023-03-03T14:07:40;100996.44;;;5.51;63.20
69842;BME280;57138;51.326;-0.068;2023-03-03T14:13:07;101002.47;;;5.63;63.53
69842;BME280;57138;51.326;-0.068;2023-03-03T14:15:34;101011.97;;;5.65;64.48
69842;BME280;57138;51.326;-0.068;2023-03-03T14:20:50;101004.72;;;5.67;63.39
69842;BME280;57138;51.326;-0.068;2023-03-03T14:26:13;101010.25;;;5.54;64.39
69842;BME280;57138;51.326;-0.068;2023-03-03T14:28:43;101002.72;;;5.50;64.71
69842;BME280;57138;51.326;-0.068;2023-03-03T14:31:21;100999.34;;;5.48;64.10
69842;BME280;57138;51.326;-0.068;2023-03-03T14:34:01;100999.34;;;5.48;64.38
69842;BME280;57138;51.326;-0.068;2023-03-03T14:36:32;100990.97;;;5.43;64.33
69842;BME280;57138;51.326;-0.068;2023-03-03T14:39:00;100995.44;;;5.42;64.20
69842;BME280;57138;51.326;-0.068;2023-03-03T14:41:40;100994.88;;;5.48;65.22
69842;BME280;57138;51.326;-0.068;2023-03-03T14:45:14;100989.59;;;5.48;64.47
69842;BME280;57138;51.326;-0.068;2023-03-03T14:47:26;100986.78;;;5.50;64.82
69842;BME280;57138;51.326;-0.068;2023-03-03T14:49:54;100982.34;;;5.50;64.80
69842;BME280;57138;51.326;-0.068;2023-03-03T14:52:39;100972.84;;;5.48;64.46
69842;BME280;57138;51.326;-0.068;2023-03-03T14:55:35;100979.00;;;5.58;63.67
69842;BME280;57138;51.326;-0.068;2023-03-03T14:58:01;100956.91;;;5.48;64.34
69842;BME280;57138;51.326;-0.068;2023-03-03T15:00:31;100986.97;;;5.58;63.69
69842;BME280;57138;51.326;-0.068;2023-03-03T15:03:19;100959.56;;;5.48;62.96
69842;BME280;57138;51.326;-0.068;2023-03-03T15:05:50;100972.28;;;5.54;62.44
69842;BME280;57138;51.326;-0.068;2023-03-03T15:08:43;100972.28;;;5.54;62.97
69842;BME280;57138;51.326;-0.068;2023-03-03T15:11:27;100978.44;;;5.54;62.63
69842;BME280;57138;51.326;-0.068;2023-03-03T15:14:28;100956.50;;;5.43;62.22
69842;BME280;57138;51.326;-0.068;2023-03-03T15:16:49;100939.88;;;5.40;62.38
69842;BME280;57138;51.326;-0.068;2023-03-03T15:19:36;100952.75;;;5.55;63.04
69842;BME280;57138;51.326;-0.068;2023-03-03T15:25:01;100958.91;;;5.55;63.40
69842;BME280;57138;51.326;-0.068;2023-03-03T15:27:35;100959.72;;;5.56;62.77
69842;BME280;57138;51.326;-0.068;2023-03-03T15:30:32;100960.00;;;5.53;62.83
69842;BME280;57138;51.326;-0.068;2023-03-03T15:35:51;100956.91;;;5.38;63.05
69842;BME280;57138;51.326;-0.068;2023-03-03T15:41:07;100959.97;;;5.33;63.36
69842;BME280;57138;51.326;-0.068;2023-03-03T15:43:44;100958.28;;;5.32;64.53
69842;BME280;57138;51.326;-0.068;2023-03-03T15:46:24;100922.38;;;5.09;64.08
69842;BME280;57138;51.326;-0.068;2023-03-03T15:56:51;100954.53;;;5.25;64.87
69842;BME280;57138;51.326;-0.068;2023-03-03T16:02:06;100958.00;;;5.26;64.94
69842;BME280;57138;51.326;-0.068;2023-03-03T16:04:37;100957.03;;;5.27;64.60
69842;BME280;57138;51.326;-0.068;2023-03-03T16:07:18;100961.22;;;5.29;65.05
69842;BME280;57138;51.326;-0.068;2023-03-03T16:09:58;100961.22;;;5.29;64.18
69842;BME280;57138;51.326;-0.068;2023-03-03T16:12:56;100962.16;;;5.28;63.88
69842;BME280;57138;51.326;-0.068;2023-03-03T16:15:40;100965.69;;;5.29;64.46
69842;BME280;57138;51.326;-0.068;2023-03-03T16:20:51;100958.56;;;5.29;64.51
69842;BME280;57138;51.326;-0.068;2023-03-03T16:38:23;100963.84;;;5.19;62.26
69842;BME280;57138;51.326;-0.068;2023-03-03T16:41:00;100963.00;;;5.19;61.32
69842;BME280;57138;51.326;-0.068;2023-03-03T16:52:14;100945.66;;;5.05;61.65
69842;BME280;57138;51.326;-0.068;2023-03-03T16:54:49;100965.94;;;5.16;62.59